sensor_id;sensor_type;location;lat;lon;timestamp;P1;durP1;ratioP1;P2;durP2;ratioP2
12798;SDS011;19250;42.646;26.980;2022-09-01T00:01:09;12.65;;;10.82;;
12798;SDS011;19250;42.646;26.980;2022-09-01T00:03:44;11.60;;;10.40;;
12798;SDS011;19250;42.646;26.980;2022-09-01T00:06:13;14.43;;;10.87;;
12798;SDS011;19250;42.646;26.980;2022-09-01T00:08:46;14.45;;;10.18;;
12798;SDS011;19250;42.646;26.980;2022-09-01T00:11:14;14.70;;;10.02;;
12798;SDS011;19250;42.646;26.980;2022-09-01T00:13:41;14.25;;;10.55;;
12798;SDS011;19250;42.646;26.980;2022-09-01T00:16:08;15.32;;;11.10;;
12798;SDS011;19250;42.646;26.980;2022-09-01T00:18:39;12.95;;;9.60;;
12798;SDS011;19250;42.646;26.980;2022-09-01T00:21:09;15.25;;;10.73;;
12798;SDS011;19250;42.646;26.980;2022-09-01T00:23:36;13.18;;;10.00;;
12798;SDS011;19250;42.646;26.980;2022-09-01T00:26:04;13.45;;;10.32;;
12798;SDS011;19250;42.646;26.980;2022-09-01T00:28:31;14.65;;;10.27;;
12798;SDS011;19250;42.646;26.980;2022-09-01T00:31:00;13.52;;;10.50;;
12798;SDS011;19250;42.646;26.980;2022-09-01T00:33:28;11.83;;;10.17;;
12798;SDS011;19250;42.646;26.980;2022-09-01T00:35:56;12.48;;;9.57;;
12798;SDS011;19250;42.646;26.980;2022-09-01T00:38:25;12.30;;;9.43;;
12798;SDS011;19250;42.646;26.980;2022-09-01T00:40:53;12.48;;;9.88;;
12798;SDS011;19250;42.646;26.980;2022-09-01T00:43:20;10.90;;;9.80;;
12798;SDS011;19250;42.646;26.980;2022-09-01T00:45:50;13.30;;;9.75;;
12798;SDS011;19250;42.646;26.980;2022-09-01T00:48:17;10.70;;;9.60;;
12798;SDS011;19250;42.646;26.980;2022-09-01T00:50:46;14.95;;;10.05;;
12798;SDS011;19250;42.646;26.980;2022-09-01T00:53:13;12.47;;;9.97;;
12798;SDS011;19250;42.646;26.980;2022-09-01T00:55:42;11.60;;;9.98;;
12798;SDS011;19250;42.646;26.980;2022-09-01T00:58:09;11.13;;;9.60;;
12798;SDS011;19250;42.646;26.980;2022-09-01T01:00:37;13.60;;;10.15;;
12798;SDS011;19250;42.646;26.980;2022-09-01T01:03:07;12.85;;;10.57;;
12798;SDS011;19250;42.646;26.980;2022-09-01T01:05:36;13.80;;;10.15;;
12798;SDS011;19250;42.646;26.980;2022-09-01T01:08:05;14.18;;;10.30;;
12798;SDS011;19250;42.646;26.980;2022-09-01T01:10:35;11.57;;;10.00;;
12798;SDS011;19250;42.646;26.980;2022-09-01T01:13:07;15.40;;;10.30;;
12798;SDS011;19250;42.646;26.980;2022-09-01T01:15:37;12.80;;;10.48;;
12798;SDS011;19250;42.646;26.980;2022-09-01T01:18:08;14.17;;;10.20;;
12798;SDS011;19250;42.646;26.980;2022-09-01T01:20:35;13.43;;;10.70;;
12798;SDS011;19250;42.646;26.980;2022-09-01T01:23:23;12.60;;;10.02;;
12798;SDS011;19250;42.646;26.980;2022-09-01T01:25:58;13.73;;;10.63;;
12798;SDS011;19250;42.646;26.980;2022-09-01T01:28:27;12.32;;;10.73;;
12798;SDS011;19250;42.646;26.980;2022-09-01T01:30:57;12.63;;;10.48;;
12798;SDS011;19250;42.646;26.980;2022-09-01T01:33:27;14.43;;;11.10;;
12798;SDS011;19250;42.646;26.980;2022-09-01T01:35:56;11.85;;;10.65;;
12798;SDS011;19250;42.646;26.980;2022-09-01T01:38:24;11.98;;;10.73;;
12798;SDS011;19250;42.646;26.980;2022-09-01T01:40:52;14.80;;;10.73;;
12798;SDS011;19250;42.646;26.980;2022-09-01T01:43:22;12.88;;;11.10;;
12798;SDS011;19250;42.646;26.980;2022-09-01T01:45:52;15.50;;;10.95;;
12798;SDS011;19250;42.646;26.980;2022-09-01T01:48:23;11.50;;;10.35;;
12798;SDS011;19250;42.646;26.980;2022-09-01T01:50:52;12.90;;;10.73;;
12798;SDS011;19250;42.646;26.980;2022-09-01T01:53:22;13.10;;;10.95;;
12798;SDS011;19250;42.646;26.980;2022-09-01T01:55:49;13.55;;;11.05;;
12798;SDS011;19250;42.646;26.980;2022-09-01T01:58:18;12.57;;;10.50;;
12798;SDS011;19250;42.646;26.980;2022-09-01T02:00:51;13.95;;;11.25;;
12798;SDS011;19250;42.646;26.980;2022-09-01T02:03:20;15.07;;;10.77;;
12798;SDS011;19250;42.646;26.980;2022-09-01T02:05:53;13.77;;;10.90;;
12798;SDS011;19250;42.646;26.980;2022-09-01T02:08:22;15.23;;;11.15;;
12798;SDS011;19250;42.646;26.980;2022-09-01T02:10:51;14.95;;;11.10;;
12798;SDS011;19250;42.646;26.980;2022-09-01T02:13:21;12.45;;;11.20;;
12798;SDS011;19250;42.646;26.980;2022-09-01T02:15:57;12.73;;;11.38;;
12798;SDS011;19250;42.646;26.980;2022-09-01T02:18:30;13.25;;;11.65;;
12798;SDS011;19250;42.646;26.980;2022-09-01T02:21:00;12.68;;;11.30;;
12798;SDS011;19250;42.646;26.980;2022-09-01T02:23:30;13.30;;;11.63;;
12798;SDS011;19250;42.646;26.980;2022-09-01T02:25:58;14.45;;;11.48;;
12798;SDS011;19250;42.646;26.980;2022-09-01T02:28:26;15.40;;;12.00;;
12798;SDS011;19250;42.646;26.980;2022-09-01T02:30:57;14.07;;;11.40;;
12798;SDS011;19250;42.646;26.980;2022-09-01T02:33:26;13.37;;;11.10;;
12798;SDS011;19250;42.646;26.980;2022-09-01T02:35:55;13.87;;;11.10;;
12798;SDS011;19250;42.646;26.980;2022-09-01T02:38:25;14.50;;;11.90;;
12798;SDS011;19250;42.646;26.980;2022-09-01T02:40:54;15.10;;;11.60;;
12798;SDS011;19250;42.646;26.980;2022-09-01T02:43:23;15.80;;;12.27;;
12798;SDS011;19250;42.646;26.980;2022-09-01T02:45:53;12.55;;;11.25;;
12798;SDS011;19250;42.646;26.980;2022-09-01T02:48:26;13.60;;;11.43;;
12798;SDS011;19250;42.646;26.980;2022-09-01T02:51:01;12.90;;;11.00;;
12798;SDS011;19250;42.646;26.980;2022-09-01T02:53:29;13.98;;;11.68;;
12798;SDS011;19250;42.646;26.980;2022-09-01T02:55:58;14.23;;;11.65;;
12798;SDS011;19250;42.646;26.980;2022-09-01T02:58:27;12.93;;;11.05;;
12798;SDS011;19250;42.646;26.980;2022-09-01T03:00:57;16.13;;;11.73;;
12798;SDS011;19250;42.646;26.980;2022-09-01T03:03:26;13.18;;;11.68;;
12798;SDS011;19250;42.646;26.980;2022-09-01T03:05:54;13.77;;;11.13;;
12798;SDS011;19250;42.646;26.980;2022-09-01T03:08:21;12.77;;;11.47;;
12798;SDS011;19250;42.646;26.980;2022-09-01T03:10:50;13.95;;;11.23;;
12798;SDS011;19250;42.646;26.980;2022-09-01T03:13:20;14.15;;;11.50;;
12798;SDS011;19250;42.646;26.980;2022-09-01T03:15:50;13.45;;;11.57;;
12798;SDS011;19250;42.646;26.980;2022-09-01T03:18:18;13.07;;;11.70;;
12798;SDS011;19250;42.646;26.980;2022-09-01T03:20:46;13.43;;;11.23;;
12798;SDS011;19250;42.646;26.980;2022-09-01T03:23:15;12.63;;;11.23;;
12798;SDS011;19250;42.646;26.980;2022-09-01T03:25:43;12.95;;;11.38;;
12798;SDS011;19250;42.646;26.980;2022-09-01T03:28:12;11.98;;;10.80;;
12798;SDS011;19250;42.646;26.980;2022-09-01T03:30:43;15.85;;;11.48;;
12798;SDS011;19250;42.646;26.980;2022-09-01T03:33:13;15.10;;;12.38;;
12798;SDS011;19250;42.646;26.980;2022-09-01T03:35:41;13.77;;;11.82;;
12798;SDS011;19250;42.646;26.980;2022-09-01T03:38:11;16.00;;;12.50;;
12798;SDS011;19250;42.646;26.980;2022-09-01T03:40:49;15.82;;;12.00;;
12798;SDS011;19250;42.646;26.980;2022-09-01T03:43:17;13.07;;;11.70;;
12798;SDS011;19250;42.646;26.980;2022-09-01T03:45:47;13.20;;;11.82;;
12798;SDS011;19250;42.646;26.980;2022-09-01T03:48:15;17.60;;;12.50;;
12798;SDS011;19250;42.646;26.980;2022-09-01T03:50:43;14.93;;;13.02;;
12798;SDS011;19250;42.646;26.980;2022-09-01T03:53:13;15.43;;;13.23;;
12798;SDS011;19250;42.646;26.980;2022-09-01T03:55:45;15.20;;;13.50;;
12798;SDS011;19250;42.646;26.980;2022-09-01T03:58:14;13.93;;;12.53;;
12798;SDS011;19250;42.646;26.980;2022-09-01T04:00:45;16.15;;;12.63;;
12798;SDS011;19250;42.646;26.980;2022-09-01T04:03:14;15.10;;;12.88;;
12798;SDS011;19250;42.646;26.980;2022-09-01T04:05:46;14.38;;;12.35;;
12798;SDS011;19250;42.646;26.980;2022-09-01T04:08:17;18.73;;;12.50;;
12798;SDS011;19250;42.646;26.980;2022-09-01T04:10:46;16.33;;;12.75;;
12798;SDS011;19250;42.646;26.980;2022-09-01T04:13:15;17.48;;;12.40;;
12798;SDS011;19250;42.646;26.980;2022-09-01T04:15:43;14.15;;;12.70;;
12798;SDS011;19250;42.646;26.980;2022-09-01T04:18:11;18.70;;;13.32;;
12798;SDS011;19250;42.646;26.980;2022-09-01T04:20:45;19.07;;;14.57;;
12798;SDS011;19250;42.646;26.980;2022-09-01T04:23:14;16.48;;;13.57;;
12798;SDS011;19250;42.646;26.980;2022-09-01T04:25:51;14.43;;;12.63;;
12798;SDS011;19250;42.646;26.980;2022-09-01T04:28:21;15.45;;;11.82;;
12798;SDS011;19250;42.646;26.980;2022-09-01T04:30:55;16.05;;;13.15;;
12798;SDS011;19250;42.646;26.980;2022-09-01T04:33:24;14.70;;;11.82;;
12798;SDS011;19250;42.646;26.980;2022-09-01T04:36:02;14.53;;;11.70;;
12798;SDS011;19250;42.646;26.980;2022-09-01T04:38:32;13.13;;;11.68;;
12798;SDS011;19250;42.646;26.980;2022-09-01T04:41:02;17.53;;;11.97;;
12798;SDS011;19250;42.646;26.980;2022-09-01T04:43:31;14.00;;;10.85;;
12798;SDS011;19250;42.646;26.980;2022-09-01T04:45:59;12.20;;;10.90;;
12798;SDS011;19250;42.646;26.980;2022-09-01T04:48:27;14.55;;;10.88;;
12798;SDS011;19250;42.646;26.980;2022-09-01T04:50:55;19.47;;;11.00;;
12798;SDS011;19250;42.646;26.980;2022-09-01T04:53:22;12.60;;;10.57;;
12798;SDS011;19250;42.646;26.980;2022-09-01T04:55:52;13.50;;;10.23;;
12798;SDS011;19250;42.646;26.980;2022-09-01T04:58:19;13.70;;;10.60;;
12798;SDS011;19250;42.646;26.980;2022-09-01T05:00:47;11.80;;;10.60;;
12798;SDS011;19250;42.646;26.980;2022-09-01T05:03:17;14.02;;;10.30;;
12798;SDS011;19250;42.646;26.980;2022-09-01T05:05:48;13.75;;;10.82;;
12798;SDS011;19250;42.646;26.980;2022-09-01T05:08:19;13.77;;;9.80;;
12798;SDS011;19250;42.646;26.980;2022-09-01T05:10:49;13.02;;;9.75;;
12798;SDS011;19250;42.646;26.980;2022-09-01T05:13:20;13.55;;;9.80;;
12798;SDS011;19250;42.646;26.980;2022-09-01T05:15:59;15.93;;;10.27;;
12798;SDS011;19250;42.646;26.980;2022-09-01T05:18:28;11.60;;;9.60;;
12798;SDS011;19250;42.646;26.980;2022-09-01T05:20:55;12.25;;;9.77;;
12798;SDS011;19250;42.646;26.980;2022-09-01T05:23:23;10.57;;;9.48;;
12798;SDS011;19250;42.646;26.980;2022-09-01T05:25:52;10.50;;;9.27;;
12798;SDS011;19250;42.646;26.980;2022-09-01T05:28:20;12.55;;;9.65;;
12798;SDS011;19250;42.646;26.980;2022-09-01T05:30:51;13.88;;;9.60;;
12798;SDS011;19250;42.646;26.980;2022-09-01T05:33:19;11.57;;;9.60;;
12798;SDS011;19250;42.646;26.980;2022-09-01T05:35:51;11.52;;;9.80;;
12798;SDS011;19250;42.646;26.980;2022-09-01T05:38:20;10.85;;;9.43;;
12798;SDS011;19250;42.646;26.980;2022-09-01T05:40:55;12.63;;;9.85;;
12798;SDS011;19250;42.646;26.980;2022-09-01T05:43:26;12.30;;;9.77;;
12798;SDS011;19250;42.646;26.980;2022-09-01T05:45:55;12.30;;;9.35;;
12798;SDS011;19250;42.646;26.980;2022-09-01T05:48:23;11.85;;;8.88;;
12798;SDS011;19250;42.646;26.980;2022-09-01T05:50:50;13.32;;;9.60;;
12798;SDS011;19250;42.646;26.980;2022-09-01T05:53:21;13.48;;;9.35;;
12798;SDS011;19250;42.646;26.980;2022-09-01T05:55:50;11.88;;;9.00;;
12798;SDS011;19250;42.646;26.980;2022-09-01T05:58:23;12.63;;;8.95;;
12798;SDS011;19250;42.646;26.980;2022-09-01T06:00:52;9.57;;;8.52;;
12798;SDS011;19250;42.646;26.980;2022-09-01T06:03:23;11.30;;;8.80;;
12798;SDS011;19250;42.646;26.980;2022-09-01T06:05:52;9.93;;;8.63;;
12798;SDS011;19250;42.646;26.980;2022-09-01T06:08:21;13.30;;;8.77;;
12798;SDS011;19250;42.646;26.980;2022-09-01T06:10:53;12.75;;;8.95;;
12798;SDS011;19250;42.646;26.980;2022-09-01T06:13:20;11.38;;;8.85;;
12798;SDS011;19250;42.646;26.980;2022-09-01T06:15:50;10.43;;;7.82;;
12798;SDS011;19250;42.646;26.980;2022-09-01T06:18:18;18.37;;;16.33;;
12798;SDS011;19250;42.646;26.980;2022-09-01T06:20:47;14.18;;;12.45;;
12798;SDS011;19250;42.646;26.980;2022-09-01T06:23:15;28.88;;;19.33;;
12798;SDS011;19250;42.646;26.980;2022-09-01T06:25:43;12.65;;;9.13;;
12798;SDS011;19250;42.646;26.980;2022-09-01T06:28:12;13.05;;;9.90;;
12798;SDS011;19250;42.646;26.980;2022-09-01T06:30:40;12.40;;;8.57;;
12798;SDS011;19250;42.646;26.980;2022-09-01T06:33:08;12.23;;;8.20;;
12798;SDS011;19250;42.646;26.980;2022-09-01T06:35:37;10.55;;;7.22;;
12798;SDS011;19250;42.646;26.980;2022-09-01T06:38:06;11.52;;;8.57;;
12798;SDS011;19250;42.646;26.980;2022-09-01T06:40:36;10.82;;;7.47;;
12798;SDS011;19250;42.646;26.980;2022-09-01T06:43:06;8.80;;;7.57;;
12798;SDS011;19250;42.646;26.980;2022-09-01T06:45:38;10.13;;;7.93;;
12798;SDS011;19250;42.646;26.980;2022-09-01T06:48:08;8.93;;;6.88;;
12798;SDS011;19250;42.646;26.980;2022-09-01T06:50:42;8.23;;;6.60;;
12798;SDS011;19250;42.646;26.980;2022-09-01T06:53:10;8.85;;;6.32;;
12798;SDS011;19250;42.646;26.980;2022-09-01T06:55:42;8.10;;;6.70;;
12798;SDS011;19250;42.646;26.980;2022-09-01T06:58:13;12.00;;;7.05;;
12798;SDS011;19250;42.646;26.980;2022-09-01T07:00:41;11.48;;;8.70;;
12798;SDS011;19250;42.646;26.980;2022-09-01T07:03:11;10.27;;;7.18;;
12798;SDS011;19250;42.646;26.980;2022-09-01T07:05:40;7.57;;;6.85;;
12798;SDS011;19250;42.646;26.980;2022-09-01T07:08:09;10.80;;;7.05;;
12798;SDS011;19250;42.646;26.980;2022-09-01T07:10:42;10.32;;;6.68;;
12798;SDS011;19250;42.646;26.980;2022-09-01T07:13:11;8.43;;;6.60;;
12798;SDS011;19250;42.646;26.980;2022-09-01T07:15:42;8.33;;;6.70;;
12798;SDS011;19250;42.646;26.980;2022-09-01T07:18:13;8.45;;;6.90;;
12798;SDS011;19250;42.646;26.980;2022-09-01T07:20:41;9.65;;;6.57;;
12798;SDS011;19250;42.646;26.980;2022-09-01T07:23:13;10.95;;;6.88;;
12798;SDS011;19250;42.646;26.980;2022-09-01T07:25:42;9.90;;;6.82;;
12798;SDS011;19250;42.646;26.980;2022-09-01T07:28:12;6.80;;;6.20;;
12798;SDS011;19250;42.646;26.980;2022-09-01T07:30:41;9.60;;;6.25;;
12798;SDS011;19250;42.646;26.980;2022-09-01T07:33:10;7.05;;;6.30;;
12798;SDS011;19250;42.646;26.980;2022-09-01T07:35:39;7.53;;;6.63;;
12798;SDS011;19250;42.646;26.980;2022-09-01T07:38:07;9.00;;;6.40;;
12798;SDS011;19250;42.646;26.980;2022-09-01T07:40:36;7.32;;;6.63;;
12798;SDS011;19250;42.646;26.980;2022-09-01T07:43:05;7.95;;;6.20;;
12798;SDS011;19250;42.646;26.980;2022-09-01T07:45:34;10.15;;;7.15;;
12798;SDS011;19250;42.646;26.980;2022-09-01T07:48:04;8.85;;;6.43;;
12798;SDS011;19250;42.646;26.980;2022-09-01T07:50:33;7.90;;;6.18;;
12798;SDS011;19250;42.646;26.980;2022-09-01T07:53:03;7.50;;;6.10;;
12798;SDS011;19250;42.646;26.980;2022-09-01T07:55:32;8.15;;;6.32;;
12798;SDS011;19250;42.646;26.980;2022-09-01T07:57:59;9.10;;;6.87;;
12798;SDS011;19250;42.646;26.980;2022-09-01T08:00:27;9.00;;;6.80;;
12798;SDS011;19250;42.646;26.980;2022-09-01T08:02:55;8.13;;;6.07;;
12798;SDS011;19250;42.646;26.980;2022-09-01T08:05:22;7.75;;;6.60;;
12798;SDS011;19250;42.646;26.980;2022-09-01T08:07:51;9.63;;;6.60;;
12798;SDS011;19250;42.646;26.980;2022-09-01T08:10:20;10.57;;;7.05;;
12798;SDS011;19250;42.646;26.980;2022-09-01T08:12:48;9.67;;;6.37;;
12798;SDS011;19250;42.646;26.980;2022-09-01T08:15:15;8.32;;;6.20;;
12798;SDS011;19250;42.646;26.980;2022-09-01T08:17:43;8.52;;;6.45;;
12798;SDS011;19250;42.646;26.980;2022-09-01T08:20:10;9.73;;;6.57;;
12798;SDS011;19250;42.646;26.980;2022-09-01T08:22:38;7.90;;;6.20;;
12798;SDS011;19250;42.646;26.980;2022-09-01T08:25:06;8.10;;;6.30;;
12798;SDS011;19250;42.646;26.980;2022-09-01T08:27:37;7.95;;;6.45;;
12798;SDS011;19250;42.646;26.980;2022-09-01T08:30:05;8.35;;;6.60;;
12798;SDS011;19250;42.646;26.980;2022-09-01T08:32:35;11.00;;;7.13;;
12798;SDS011;19250;42.646;26.980;2022-09-01T08:35:07;11.40;;;6.40;;
12798;SDS011;19250;42.646;26.980;2022-09-01T08:37:35;7.25;;;6.50;;
12798;SDS011;19250;42.646;26.980;2022-09-01T08:40:03;9.20;;;6.13;;
12798;SDS011;19250;42.646;26.980;2022-09-01T08:42:38;9.18;;;6.53;;
12798;SDS011;19250;42.646;26.980;2022-09-01T08:45:15;8.57;;;6.88;;
12798;SDS011;19250;42.646;26.980;2022-09-01T08:47:50;8.27;;;6.40;;
12798;SDS011;19250;42.646;26.980;2022-09-01T08:50:19;7.25;;;6.15;;
12798;SDS011;19250;42.646;26.980;2022-09-01T08:52:49;8.68;;;6.20;;
12798;SDS011;19250;42.646;26.980;2022-09-01T08:55:24;9.35;;;6.75;;
12798;SDS011;19250;42.646;26.980;2022-09-01T08:57:58;7.33;;;6.20;;
12798;SDS011;19250;42.646;26.980;2022-09-01T09:00:32;7.65;;;6.13;;
12798;SDS011;19250;42.646;26.980;2022-09-01T09:03:09;8.27;;;5.93;;
12798;SDS011;19250;42.646;26.980;2022-09-01T09:05:55;8.35;;;6.60;;
12798;SDS011;19250;42.646;26.980;2022-09-01T09:08:38;6.93;;;5.72;;
12798;SDS011;19250;42.646;26.980;2022-09-01T09:11:34;7.43;;;5.93;;
12798;SDS011;19250;42.646;26.980;2022-09-01T09:14:20;8.07;;;6.07;;
12798;SDS011;19250;42.646;26.980;2022-09-01T09:16:57;9.48;;;6.20;;
12798;SDS011;19250;42.646;26.980;2022-09-01T09:19:27;10.23;;;6.28;;
12798;SDS011;19250;42.646;26.980;2022-09-01T09:21:56;9.90;;;6.47;;
12798;SDS011;19250;42.646;26.980;2022-09-01T09:24:26;11.70;;;6.90;;
12798;SDS011;19250;42.646;26.980;2022-09-01T09:27:14;9.43;;;5.77;;
12798;SDS011;19250;42.646;26.980;2022-09-01T09:29:45;7.15;;;5.80;;
12798;SDS011;19250;42.646;26.980;2022-09-01T09:32:15;7.95;;;6.05;;
12798;SDS011;19250;42.646;26.980;2022-09-01T09:34:42;7.75;;;5.80;;
12798;SDS011;19250;42.646;26.980;2022-09-01T09:37:20;7.63;;;6.35;;
12798;SDS011;19250;42.646;26.980;2022-09-01T09:42:57;7.50;;;5.93;;
12798;SDS011;19250;42.646;26.980;2022-09-01T09:45:30;8.00;;;6.20;;
12798;SDS011;19250;42.646;26.980;2022-09-01T09:47:59;8.50;;;6.45;;
12798;SDS011;19250;42.646;26.980;2022-09-01T09:50:31;9.85;;;7.47;;
12798;SDS011;19250;42.646;26.980;2022-09-01T09:53:10;7.38;;;6.43;;
12798;SDS011;19250;42.646;26.980;2022-09-01T09:55:50;8.40;;;6.20;;
12798;SDS011;19250;42.646;26.980;2022-09-01T09:58:25;7.68;;;5.95;;
12798;SDS011;19250;42.646;26.980;2022-09-01T10:01:00;11.77;;;6.68;;
12798;SDS011;19250;42.646;26.980;2022-09-01T10:03:42;9.15;;;6.43;;
12798;SDS011;19250;42.646;26.980;2022-09-01T10:06:15;10.43;;;6.18;;
12798;SDS011;19250;42.646;26.980;2022-09-01T10:08:57;9.85;;;6.03;;
12798;SDS011;19250;42.646;26.980;2022-09-01T10:11:27;9.15;;;5.70;;
12798;SDS011;19250;42.646;26.980;2022-09-01T10:13:59;11.20;;;6.38;;
12798;SDS011;19250;42.646;26.980;2022-09-01T10:16:28;13.00;;;5.65;;
12798;SDS011;19250;42.646;26.980;2022-09-01T10:19:00;10.48;;;6.03;;
12798;SDS011;19250;42.646;26.980;2022-09-01T10:21:32;8.43;;;5.40;;
12798;SDS011;19250;42.646;26.980;2022-09-01T10:24:03;8.90;;;5.90;;
12798;SDS011;19250;42.646;26.980;2022-09-01T10:26:47;7.30;;;5.80;;
12798;SDS011;19250;42.646;26.980;2022-09-01T10:29:21;9.48;;;5.78;;
12798;SDS011;19250;42.646;26.980;2022-09-01T10:31:53;7.90;;;5.07;;
12798;SDS011;19250;42.646;26.980;2022-09-01T10:34:21;8.90;;;5.45;;
12798;SDS011;19250;42.646;26.980;2022-09-01T10:36:50;10.95;;;6.22;;
12798;SDS011;19250;42.646;26.980;2022-09-01T10:39:18;10.38;;;6.35;;
12798;SDS011;19250;42.646;26.980;2022-09-01T10:41:47;8.63;;;5.70;;
12798;SDS011;19250;42.646;26.980;2022-09-01T10:44:22;7.90;;;5.57;;
12798;SDS011;19250;42.646;26.980;2022-09-01T10:46:56;8.95;;;5.50;;
12798;SDS011;19250;42.646;26.980;2022-09-01T10:55:20;9.10;;;5.97;;
12798;SDS011;19250;42.646;26.980;2022-09-01T10:57:53;6.90;;;5.78;;
12798;SDS011;19250;42.646;26.980;2022-09-01T11:00:47;10.00;;;5.85;;
12798;SDS011;19250;42.646;26.980;2022-09-01T11:03:33;8.20;;;5.75;;
12798;SDS011;19250;42.646;26.980;2022-09-01T11:06:05;7.40;;;5.60;;
12798;SDS011;19250;42.646;26.980;2022-09-01T11:08:40;9.07;;;6.10;;
12798;SDS011;19250;42.646;26.980;2022-09-01T11:11:14;8.83;;;5.83;;
12798;SDS011;19250;42.646;26.980;2022-09-01T11:13:50;7.47;;;5.80;;
12798;SDS011;19250;42.646;26.980;2022-09-01T11:19:20;8.57;;;5.80;;
12798;SDS011;19250;42.646;26.980;2022-09-01T11:22:04;8.48;;;5.53;;
12798;SDS011;19250;42.646;26.980;2022-09-01T11:24:52;7.70;;;5.60;;
12798;SDS011;19250;42.646;26.980;2022-09-01T11:30:34;8.50;;;5.65;;
12798;SDS011;19250;42.646;26.980;2022-09-01T11:33:25;9.55;;;6.05;;
12798;SDS011;19250;42.646;26.980;2022-09-01T11:36:00;12.07;;;6.07;;
12798;SDS011;19250;42.646;26.980;2022-09-01T11:38:31;9.65;;;6.00;;
12798;SDS011;19250;42.646;26.980;2022-09-01T11:41:18;8.35;;;6.00;;
12798;SDS011;19250;42.646;26.980;2022-09-01T11:43:48;8.67;;;5.80;;
12798;SDS011;19250;42.646;26.980;2022-09-01T11:46:20;7.60;;;5.43;;
12798;SDS011;19250;42.646;26.980;2022-09-01T11:48:51;9.67;;;5.93;;
12798;SDS011;19250;42.646;26.980;2022-09-01T11:51:20;9.10;;;6.32;;
12798;SDS011;19250;42.646;26.980;2022-09-01T11:53:47;9.50;;;6.03;;
12798;SDS011;19250;42.646;26.980;2022-09-01T11:56:17;9.23;;;5.60;;
12798;SDS011;19250;42.646;26.980;2022-09-01T11:58:49;9.52;;;6.00;;
12798;SDS011;19250;42.646;26.980;2022-09-01T12:01:18;7.90;;;6.00;;
12798;SDS011;19250;42.646;26.980;2022-09-01T12:03:47;9.57;;;5.82;;
12798;SDS011;19250;42.646;26.980;2022-09-01T12:06:18;9.37;;;6.13;;
12798;SDS011;19250;42.646;26.980;2022-09-01T12:08:50;7.47;;;5.93;;
12798;SDS011;19250;42.646;26.980;2022-09-01T12:11:21;7.70;;;5.63;;
12798;SDS011;19250;42.646;26.980;2022-09-01T12:13:55;7.65;;;6.15;;
12798;SDS011;19250;42.646;26.980;2022-09-01T12:16:25;7.78;;;5.90;;
12798;SDS011;19250;42.646;26.980;2022-09-01T12:18:53;8.10;;;5.87;;
12798;SDS011;19250;42.646;26.980;2022-09-01T12:21:25;9.88;;;6.07;;
12798;SDS011;19250;42.646;26.980;2022-09-01T12:24:08;8.88;;;6.30;;
12798;SDS011;19250;42.646;26.980;2022-09-01T12:26:40;6.65;;;5.90;;
12798;SDS011;19250;42.646;26.980;2022-09-01T12:29:07;7.97;;;6.80;;
12798;SDS011;19250;42.646;26.980;2022-09-01T12:31:38;8.00;;;6.80;;
12798;SDS011;19250;42.646;26.980;2022-09-01T12:34:21;10.32;;;7.47;;
12798;SDS011;19250;42.646;26.980;2022-09-01T12:37:02;9.52;;;7.32;;
12798;SDS011;19250;42.646;26.980;2022-09-01T12:39:32;9.55;;;6.97;;
12798;SDS011;19250;42.646;26.980;2022-09-01T12:42:06;8.35;;;7.55;;
12798;SDS011;19250;42.646;26.980;2022-09-01T12:44:43;11.02;;;7.80;;
12798;SDS011;19250;42.646;26.980;2022-09-01T12:47:13;10.55;;;7.80;;
12798;SDS011;19250;42.646;26.980;2022-09-01T12:50:32;9.95;;;8.30;;
12798;SDS011;19250;42.646;26.980;2022-09-01T12:53:03;9.68;;;7.93;;
12798;SDS011;19250;42.646;26.980;2022-09-01T12:55:51;9.50;;;7.90;;
12798;SDS011;19250;42.646;26.980;2022-09-01T12:58:24;10.10;;;8.18;;
12798;SDS011;19250;42.646;26.980;2022-09-01T13:00:54;8.75;;;7.85;;
12798;SDS011;19250;42.646;26.980;2022-09-01T13:03:23;11.57;;;8.23;;
12798;SDS011;19250;42.646;26.980;2022-09-01T13:05:54;11.18;;;7.57;;
12798;SDS011;19250;42.646;26.980;2022-09-01T13:08:25;8.73;;;7.65;;
12798;SDS011;19250;42.646;26.980;2022-09-01T13:10:55;10.17;;;7.70;;
12798;SDS011;19250;42.646;26.980;2022-09-01T13:13:24;9.38;;;7.43;;
12798;SDS011;19250;42.646;26.980;2022-09-01T13:15:53;8.67;;;7.67;;
12798;SDS011;19250;42.646;26.980;2022-09-01T13:18:24;10.77;;;8.35;;
12798;SDS011;19250;42.646;26.980;2022-09-01T13:20:52;7.43;;;6.65;;
12798;SDS011;19250;42.646;26.980;2022-09-01T13:23:20;11.15;;;7.60;;
12798;SDS011;19250;42.646;26.980;2022-09-01T13:25:50;7.82;;;6.93;;
12798;SDS011;19250;42.646;26.980;2022-09-01T13:28:18;9.60;;;6.90;;
12798;SDS011;19250;42.646;26.980;2022-09-01T13:30:50;9.40;;;6.80;;
12798;SDS011;19250;42.646;26.980;2022-09-01T13:33:20;8.87;;;6.67;;
12798;SDS011;19250;42.646;26.980;2022-09-01T13:35:48;7.47;;;6.63;;
12798;SDS011;19250;42.646;26.980;2022-09-01T13:38:16;8.05;;;6.38;;
12798;SDS011;19250;42.646;26.980;2022-09-01T13:40:44;7.75;;;5.80;;
12798;SDS011;19250;42.646;26.980;2022-09-01T13:43:14;7.10;;;6.37;;
12798;SDS011;19250;42.646;26.980;2022-09-01T13:45:42;8.48;;;6.55;;
12798;SDS011;19250;42.646;26.980;2022-09-01T13:48:09;7.40;;;6.50;;
12798;SDS011;19250;42.646;26.980;2022-09-01T13:50:37;9.45;;;6.88;;
12798;SDS011;19250;42.646;26.980;2022-09-01T13:53:04;11.30;;;7.05;;
12798;SDS011;19250;42.646;26.980;2022-09-01T13:55:33;9.25;;;6.57;;
12798;SDS011;19250;42.646;26.980;2022-09-01T13:58:03;9.38;;;7.30;;
12798;SDS011;19250;42.646;26.980;2022-09-01T14:00:33;7.50;;;6.60;;
12798;SDS011;19250;42.646;26.980;2022-09-01T14:03:03;8.50;;;6.63;;
12798;SDS011;19250;42.646;26.980;2022-09-01T14:05:33;9.80;;;6.82;;
12798;SDS011;19250;42.646;26.980;2022-09-01T14:08:03;7.60;;;6.90;;
12798;SDS011;19250;42.646;26.980;2022-09-01T14:10:32;9.27;;;7.30;;
12798;SDS011;19250;42.646;26.980;2022-09-01T14:13:02;9.80;;;6.80;;
12798;SDS011;19250;42.646;26.980;2022-09-01T14:15:30;10.18;;;7.10;;
12798;SDS011;19250;42.646;26.980;2022-09-01T14:17:58;10.50;;;7.68;;
12798;SDS011;19250;42.646;26.980;2022-09-01T14:20:27;10.45;;;7.25;;
12798;SDS011;19250;42.646;26.980;2022-09-01T14:22:56;9.32;;;7.13;;
12798;SDS011;19250;42.646;26.980;2022-09-01T14:25:23;9.27;;;7.35;;
12798;SDS011;19250;42.646;26.980;2022-09-01T14:27:51;11.98;;;7.15;;
12798;SDS011;19250;42.646;26.980;2022-09-01T14:30:20;9.27;;;7.13;;
12798;SDS011;19250;42.646;26.980;2022-09-01T14:32:49;10.00;;;7.10;;
12798;SDS011;19250;42.646;26.980;2022-09-01T14:35:19;12.53;;;7.90;;
12798;SDS011;19250;42.646;26.980;2022-09-01T14:37:49;10.97;;;7.67;;
12798;SDS011;19250;42.646;26.980;2022-09-01T14:40:18;8.27;;;7.47;;
12798;SDS011;19250;42.646;26.980;2022-09-01T14:42:48;8.45;;;7.50;;
12798;SDS011;19250;42.646;26.980;2022-09-01T14:45:18;8.45;;;7.47;;
12798;SDS011;19250;42.646;26.980;2022-09-01T14:47:47;10.77;;;7.60;;
12798;SDS011;19250;42.646;26.980;2022-09-01T14:50:15;9.43;;;7.68;;
12798;SDS011;19250;42.646;26.980;2022-09-01T14:52:47;9.10;;;8.07;;
12798;SDS011;19250;42.646;26.980;2022-09-01T14:55:17;10.48;;;7.63;;
12798;SDS011;19250;42.646;26.980;2022-09-01T14:57:44;11.88;;;8.05;;
12798;SDS011;19250;42.646;26.980;2022-09-01T15:00:11;10.20;;;8.07;;